Time;durP1;ratioP1;P1;durP2;ratioP2;P2;SDS_P1;SDS_P2;PMS_P1;PMS_P2;Temp;Humidity;BMP_temperature;BMP_pressure;BME280_temperature;BME280_humidity;BME280_pressure;Samples;Min_cycle;Max_cycle;Signal;HPM_P1;HPM_P2
2021/09/20 00:08:33;;;;;;;;;1.33;0.33;;;;;17.54;63.77;101468.78;6093769;23;45427;-83
2021/09/20 01:26:35;;;;;;;;;;;;;;;;;;;;;
2021/09/20 01:29:37;;;;;;;;;;;;;;;;;;;;;
2021/09/20 01:43:00;;;;;;;;;;;;;;;;;;;;;
2021/09/20 02:03:32;;;;;;;;;;;;;;;;;;;;;
2021/09/20 02:06:47;;;;;;;;;2.00;2.00;;;;;17.12;67.71;101413.72;5915225;24;68809;-82
2021/09/20 02:09:49;;;;;;;;;;;;;;;;;;;;;
2021/09/20 02:17:29;;;;;;;;;;;;;;;;;;;;;
2021/09/20 02:21:03;;;;;;;;;;;;;;;;;;;;;
2021/09/20 05:04:15;;;;;;;;;;;;;;;;;;;;;
2021/09/20 05:07:11;;;;;;;;;4.00;4.00;;;;;17.02;69.02;101422.78;6123741;23;72915;-81
2021/09/20 05:10:15;;;;;;;;;;;;;;;;;;;;;
2021/09/20 05:16:53;;;;;;;;;;;;;;;;;;;;;
2021/09/20 05:20:27;;;;;;;;;;;;;;;;;;;;;
2021/09/20 05:26:38;;;;;;;;;6.00;5.00;;;;;17.08;69.30;101446.63;6238921;22;45373;-82
2021/09/20 06:25:14;;;;;;;;;11.00;9.75;;;;;17.35;70.29;101461.19;6245953;22;45390;-84
2021/09/20 06:27:42;;;;;;;;;10.00;10.00;;;;;17.42;70.08;101464.56;6241405;22;45739;-81
2021/09/20 06:30:09;;;;;;;;;9.75;8.25;;;;;17.53;70.05;101490.97;6270815;22;45393;-81
2021/09/20 06:32:35;;;;;;;;;10.25;10.25;;;;;17.43;69.91;101466.34;6281530;22;45370;-81
2021/09/20 06:35:01;;;;;;;;;14.00;13.25;;;;;17.54;70.13;101485.63;6281369;22;45277;-81
2021/09/20 06:37:34;;;;;;;;;14.25;12.00;;;;;17.54;70.29;101480.31;6306966;22;47247;-81
2021/09/20 06:40:29;;;;;;;;;14.75;13.50;;;;;17.54;70.52;101471.44;6280068;22;45377;-82
2021/09/20 06:42:56;;;;;;;;;15.00;14.25;;;;;17.64;70.49;101489.88;6262209;22;45295;-81
2021/09/20 06:45:22;;;;;;;;;18.00;15.25;;;;;17.73;70.85;101502.09;6281382;22;45244;-81
2021/09/20 06:47:47;;;;;;;;;16.50;14.50;;;;;17.63;70.64;101476.56;6280633;22;46647;-81
2021/09/20 06:50:13;;;;;;;;;15.00;14.00;;;;;17.79;70.68;101501.13;6308862;22;45282;-81
2021/09/20 06:52:42;;;;;;;;;15.00;14.75;;;;;17.80;70.81;101498.44;6309103;22;45089;-82
2021/09/20 06:55:08;;;;;;;;;18.25;15.00;;;;;17.84;70.16;101499.25;6281011;22;45405;-81
2021/09/20 06:57:34;;;;;;;;;15.50;15.50;;;;;17.92;70.87;101507.94;6308258;22;45536;-81
2021/09/20 07:00:00;;;;;;;;;14.25;13.25;;;;;17.86;70.39;101492.09;6308837;22;45337;-80
2021/09/20 07:02:49;;;;;;;;;16.75;14.75;;;;;17.97;70.41;101503.38;6283326;22;45246;-82
2021/09/20 07:09:43;;;;;;;;;13.75;13.75;;;;;18.00;70.50;101516.63;6274240;22;46295;-84
2021/09/20 07:11:42;;;;;;;;;15.75;13.25;;;;;17.97;70.74;101511.38;6284065;22;45216;-82
2021/09/20 07:14:08;;;;;;;;;16.25;15.50;;;;;18.07;70.24;101517.41;6302485;22;45244;-82
2021/09/20 07:17:37;;;;;;;;;;;;;;;;;;;;;
2021/09/20 07:20:13;;;;;;;;;19.75;17.00;;;;;18.24;70.17;101528.53;6277656;22;74034;-84
2021/09/20 07:22:50;;;;;;;;;16.25;14.25;;;;;18.18;69.57;101509.16;6280207;22;45333;-82
2021/09/20 07:29:39;;;;;;;;;19.25;14.50;;;;;18.45;69.42;101526.28;6280684;22;45480;-90
2021/09/20 07:32:28;;;;;;;;;17.00;15.00;;;;;18.51;69.37;101531.47;6176715;23;45542;-84
2021/09/20 07:35:17;;;;;;;;;20.00;16.50;;;;;18.59;69.38;101528.63;6208762;22;45213;-96
2021/09/20 07:37:51;;;;;;;;;14.75;13.25;;;;;18.61;69.00;101522.34;6282659;22;45368;-95
2021/09/20 07:40:27;;;;;;;;;19.00;17.00;;;;;18.61;68.79;101522.34;6292497;22;44764;-93
2021/09/20 07:46:19;;;;;;;;;15.00;14.00;;;;;18.66;69.15;101532.91;6213340;22;45411;-83
2021/09/20 07:48:46;;;;;;;;;14.75;14.00;;;;;18.72;68.75;101536.28;6273326;22;45291;-82
2021/09/20 07:51:11;;;;;;;;;14.75;14.25;;;;;18.64;68.62;101521.38;6277023;22;45240;-81
2021/09/20 07:53:39;;;;;;;;;13.00;13.00;;;;;18.77;68.99;101540.66;6276276;22;47404;-82
2021/09/20 07:56:05;;;;;;;;;12.00;12.00;;;;;18.73;68.61;101535.34;6276565;22;45768;-81
2021/09/20 07:58:30;;;;;;;;;21.25;17.50;;;;;18.80;68.80;101540.59;6278634;22;45428;-80
2021/09/20 08:00:57;;;;;;;;;18.75;16.00;;;;;18.81;68.86;101539.66;6276577;22;45526;-80
2021/09/20 08:03:23;;;;;;;;;13.00;12.75;;;;;18.74;68.56;101530.91;6276505;22;46692;-82
2021/09/20 08:05:52;;;;;;;;;14.25;13.50;;;;;18.91;68.44;101552.72;6276477;22;45352;-82
2021/09/20 08:08:26;;;;;;;;;22.50;14.00;;;;;18.94;68.13;101544.63;6276259;22;45287;-83
2021/09/20 08:10:52;;;;;;;;;18.75;14.50;;;;;19.08;68.39;101546.06;6278686;22;45456;-82
2021/09/20 08:13:20;;;;;;;;;19.00;16.50;;;;;19.09;68.21;101545.19;6280029;22;46441;-82
2021/09/20 08:15:46;;;;;;;;;20.25;18.25;;;;;19.14;67.87;101540.59;6310212;22;45440;-82
2021/09/20 08:18:18;;;;;;;;;16.00;13.50;;;;;19.28;67.76;101554.44;6311529;22;45515;-82
2021/09/20 08:21:22;;;;;;;;;15.50;14.75;;;;;19.31;67.47;101549.00;6306883;22;45214;-83
2021/09/20 08:23:48;;;;;;;;;16.50;12.25;;;;;19.53;67.24;101561.78;6264866;22;47298;-83
2021/09/20 08:26:48;;;;;;;;;19.50;17.00;;;;;19.65;66.85;101566.78;6309529;22;45167;-83
2021/09/20 08:29:27;;;;;;;;;15.25;14.25;;;;;19.71;66.45;101545.25;6298705;22;45347;-82
2021/09/20 08:36:03;;;;;;;;;18.25;15.25;;;;;19.83;65.96;101552.94;6307898;22;45422;-83
2021/09/20 08:42:45;;;;;;;;;;;;;;;;;;;;;
2021/09/20 08:48:53;;;;;;;;;15.00;14.50;;;;;19.93;65.48;101563.34;6033927;23;45936;-82
2021/09/20 08:51:20;;;;;;;;;15.50;13.25;;;;;19.95;65.59;101567.72;6168495;23;45509;-82
2021/09/20 09:03:17;;;;;;;;;;;;;;;;;;;;;
2021/09/20 09:41:22;;;;;;;;;9.75;9.25;;;;;20.90;61.78;101606.69;6090447;23;45453;-84
2021/09/20 11:46:27;;;;;;;;;11.33;10.33;;;;;21.85;59.37;101643.63;6285229;22;46372;-86
2021/09/20 11:49:08;;;;;;;;;15.00;12.00;;;;;21.85;59.17;101642.75;6307946;22;45755;-86
2021/09/20 11:51:45;;;;;;;;;;;;;;;;;;;;;
2021/09/20 11:55:37;;;;;;;;;;;;;;;;;;;;;
2021/09/20 12:12:20;;;;;;;;;11.00;11.00;;;;;22.23;58.08;101639.53;6241152;22;45426;-84
2021/09/20 12:14:58;;;;;;;;;12.33;11.00;;;;;22.38;57.64;101637.22;6216262;22;45431;-84
2021/09/20 12:17:24;;;;;;;;;12.00;10.00;;;;;22.60;57.31;101648.88;6218965;22;45308;-84
2021/09/20 12:19:54;;;;;;;;;10.00;9.67;;;;;22.84;56.48;101640.75;6218646;22;45933;-84
2021/09/20 12:22:20;;;;;;;;;9.33;9.33;;;;;23.08;56.28;101649.66;6245847;22;45387;-84
2021/09/20 12:24:46;;;;;;;;;9.75;9.75;;;;;23.21;55.50;101642.84;6242673;22;45405;-84
2021/09/20 12:27:11;;;;;;;;;9.00;8.33;;;;;23.49;55.19;101653.25;6218564;22;45822;-84
2021/09/20 12:29:38;;;;;;;;;10.00;9.00;;;;;23.63;54.39;101636.56;6219469;22;46797;-83
2021/09/20 12:32:03;;;;;;;;;9.00;6.33;;;;;23.82;53.79;101652.78;6219341;22;45581;-85
2021/09/20 12:34:34;;;;;;;;;7.00;5.33;;;;;23.96;53.65;101654.84;6245352;22;45302;-85
2021/09/20 12:37:02;;;;;;;;;7.00;6.33;;;;;24.09;53.02;101658.72;6244246;22;45375;-85
2021/09/20 12:39:32;;;;;;;;;8.00;7.00;;;;;24.17;52.40;101661.06;6217197;22;46966;-85
2021/09/20 12:42:03;;;;;;;;;7.33;7.33;;;;;24.32;52.74;101660.34;6218626;22;45435;-85
2021/09/20 12:44:39;;;;;;;;;7.00;6.67;;;;;24.58;52.51;101658.28;6220580;22;45149;-85
2021/09/20 12:47:19;;;;;;;;;6.67;6.67;;;;;24.80;51.38;101664.38;6249180;22;45201;-85
2021/09/20 12:50:05;;;;;;;;;6.00;6.00;;;;;25.05;51.22;101664.03;6247223;22;47165;-85
2021/09/20 12:52:33;;;;;;;;;6.33;5.33;;;;;25.31;50.90;101659.19;6247791;22;45446;-85
2021/09/20 12:54:59;;;;;;;;;8.00;7.00;;;;;25.60;50.14;101660.38;6244927;22;45125;-85
2021/09/20 12:57:27;;;;;;;;;5.33;5.33;;;;;25.75;49.18;101656.88;6244967;22;45213;-85
2021/09/20 13:00:04;;;;;;;;;6.00;5.00;;;;;25.95;48.98;101660.38;6245894;22;46157;-86
2021/09/20 13:02:30;;;;;;;;;5.33;5.00;;;;;26.37;47.81;101662.56;6245856;22;45459;-86
2021/09/20 13:04:57;;;;;;;;;6.00;6.00;;;;;26.78;48.19;101661.22;6218347;22;45368;-86
2021/09/20 13:07:25;;;;;;;;;7.00;5.67;;;;;27.19;47.15;101666.09;6247252;22;45241;-86
2021/09/20 13:10:00;;;;;;;;;5.00;5.00;;;;;27.35;45.93;101658.81;6218339;22;48200;-86
2021/09/20 13:12:50;;;;;;;;;5.33;5.33;;;;;27.84;45.37;101658.56;6217784;22;45314;-86
2021/09/20 13:15:18;;;;;;;;;5.00;3.67;;;;;28.30;44.03;101665.63;6247881;22;45371;-86
2021/09/20 13:17:58;;;;;;;;;4.00;4.00;;;;;28.56;43.84;101655.88;6219800;22;45277;-87
2021/09/20 13:20:29;;;;;;;;;4.67;4.00;;;;;29.31;43.09;101652.75;6248363;22;46508;-85
2021/09/20 13:23:01;;;;;;;;;4.00;4.00;;;;;31.33;40.86;101661.69;6251489;22;45305;-86
2021/09/20 13:25:39;;;;;;;;;3.00;3.00;;;;;31.93;38.67;101657.09;6257681;22;45122;-87
2021/09/20 13:28:14;;;;;;;;;5.00;4.33;;;;;31.75;38.42;101664.81;6268014;22;45313;-88
2021/09/20 13:31:04;;;;;;;;;;;;;;;;;;;;;
2021/09/20 13:33:47;;;;;;;;;;;;;;;;;;;;;
2021/09/20 13:36:13;;;;;;;;;5.00;5.00;;;;;35.95;33.19;101660.88;6267206;22;67969;-82
2021/09/20 13:39:24;;;;;;;;;5.67;5.67;;;;;35.61;32.33;101662.38;6264921;22;44955;-85
2021/09/20 13:41:49;;;;;;;;;4.33;4.33;;;;;35.67;32.17;101664.56;6113219;23;45615;-82
2021/09/20 13:44:17;;;;;;;;;3.00;3.00;;;;;36.63;31.55;101657.88;6221719;22;44718;-83
2021/09/20 13:47:29;;;;;;;;;;;;;;;;;;;;;
2021/09/20 13:50:37;;;;;;;;;3.67;3.67;;;;;37.93;29.12;101664.69;6198189;22;72664;-84
2021/09/20 13:53:06;;;;;;;;;3.00;2.67;;;;;38.77;28.04;101663.06;6093794;23;47280;-84
2021/09/20 13:55:31;;;;;;;;;5.00;5.00;;;;;38.51;28.34;101669.53;6201506;22;44893;-90
2021/09/20 13:57:59;;;;;;;;;4.67;4.67;;;;;37.99;27.85;101666.84;6225781;22;45207;-93
2021/09/20 14:00:27;;;;;;;;;3.33;3.33;;;;;37.27;27.71;101658.72;6222851;22;45308;-89
2021/09/20 14:02:53;;;;;;;;;3.00;3.00;;;;;36.98;27.48;101664.41;6252911;22;47266;-92
2021/09/20 14:05:19;;;;;;;;;2.33;2.33;;;;;36.86;27.84;101655.56;6250719;22;45332;-93
2021/09/20 14:07:45;;;;;;;;;2.67;2.67;;;;;35.68;27.90;101661.66;6226523;22;45305;-93
2021/09/20 14:10:16;;;;;;;;;2.00;2.00;;;;;34.24;29.27;101653.97;6225059;22;45343;-92
2021/09/20 14:12:43;;;;;;;;;3.00;3.00;;;;;32.95;30.23;101639.63;6280584;22;46972;-93
2021/09/20 14:15:10;;;;;;;;;3.33;3.33;;;;;31.86;32.55;101643.94;6281341;22;45422;-89
2021/09/20 14:17:35;;;;;;;;;4.33;4.33;;;;;30.99;33.04;101656.13;6255494;22;45335;-95
2021/09/20 14:20:01;;;;;;;;;1.00;1.00;;;;;30.84;34.49;101660.00;6281894;22;45207;-91
2021/09/20 14:22:35;;;;;;;;;4.00;4.00;;;;;32.03;34.17;101664.41;6256758;22;47120;-92
2021/09/20 14:25:11;;;;;;;;;3.33;3.33;;;;;31.73;32.97;101658.63;6258878;22;45292;-92
2021/09/20 14:34:24;;;;;;;;;4.00;4.00;;;;;30.83;35.08;101658.28;6279319;22;45918;-89
2021/09/20 14:36:49;;;;;;;;;2.00;2.00;;;;;30.48;35.51;101659.88;6269203;22;44963;-92
2021/09/20 14:39:17;;;;;;;;;4.00;3.67;;;;;29.87;41.54;101662.38;6269909;22;45243;-88
2021/09/20 14:41:43;;;;;;;;;3.00;3.00;;;;;29.17;36.71;101661.81;6267785;22;45213;-88
2021/09/20 14:44:16;;;;;;;;;4.00;3.00;;;;;28.66;36.98;101656.16;6270532;22;46930;-92
2021/09/20 14:46:41;;;;;;;;;3.00;3.00;;;;;28.56;37.82;101670.28;6273703;22;44707;-88
2021/09/20 14:49:07;;;;;;;;;1.00;1.00;;;;;29.15;37.67;101667.34;6272541;22;44631;-86
2021/09/20 14:51:33;;;;;;;;;1.67;1.67;;;;;29.62;37.29;101663.22;6289341;22;45580;-87
2021/09/20 14:53:58;;;;;;;;;2.00;2.00;;;;;30.66;36.98;101673.97;6281500;22;46733;-86
2021/09/20 14:56:24;;;;;;;;;2.00;2.00;;;;;31.11;35.14;101670.63;6284048;22;45212;-87
2021/09/20 14:58:49;;;;;;;;;2.00;2.00;;;;;30.54;34.52;101658.53;6280129;22;45253;-85
2021/09/20 15:01:18;;;;;;;;;3.67;2.00;;;;;29.87;35.73;101666.97;6282789;22;45418;-87
2021/09/20 15:03:44;;;;;;;;;4.00;3.00;;;;;29.26;36.50;101668.44;6279683;22;46808;-84
2021/09/20 15:06:10;;;;;;;;;2.67;2.00;;;;;28.82;37.30;101667.72;6277749;22;45361;-86
2021/09/20 15:08:40;;;;;;;;;2.67;2.67;;;;;28.48;37.95;101672.63;6250912;22;45423;-85
2021/09/20 15:11:07;;;;;;;;;2.00;2.00;;;;;28.27;38.61;101677.53;6248495;22;45345;-85
2021/09/20 15:13:32;;;;;;;;;5.00;3.00;;;;;28.37;39.37;101688.66;6277879;22;45490;-85
2021/09/20 15:15:58;;;;;;;;;4.00;4.00;;;;;28.28;39.34;101679.28;6250860;22;45405;-87
2021/09/20 15:18:23;;;;;;;;;2.67;2.33;;;;;28.10;39.18;101681.31;6248130;22;45411;-87
2021/09/20 15:20:49;;;;;;;;;2.00;2.00;;;;;27.80;39.63;101694.00;6275719;22;45510;-88
2021/09/20 15:35:27;;;;;;;;;3.00;2.67;;;;;25.32;43.55;101698.69;6259702;22;45752;-83
2021/09/20 15:37:53;;;;;;;;;3.67;3.67;;;;;25.08;44.21;101714.22;6275896;22;45519;-83
2021/09/20 15:40:21;;;;;;;;;2.00;2.00;;;;;24.84;45.01;101708.22;6278283;22;45219;-86
2021/09/20 15:42:57;;;;;;;;;3.67;3.33;;;;;24.64;45.54;101711.84;6278391;22;45196;-85
2021/09/20 15:45:26;;;;;;;;;3.33;3.33;;;;;24.44;45.72;101715.47;6277194;22;45302;-84
2021/09/20 15:47:55;;;;;;;;;11.00;8.33;;;;;24.34;46.37;101712.28;6275741;22;45266;-84
2021/09/20 15:50:24;;;;;;;;;5.00;5.00;;;;;24.23;46.61;101711.91;6276130;22;45284;-86
2021/09/20 15:53:38;;;;;;;;;;;;;;;;;;;;;
2021/09/20 15:56:04;;;;;;;;;5.00;5.00;;;;;24.02;47.59;101729.88;6276697;22;74818;-86
2021/09/20 15:58:29;;;;;;;;;4.33;4.33;;;;;23.88;48.36;101733.19;6298041;22;45392;-86
2021/09/20 16:00:55;;;;;;;;;4.67;4.00;;;;;23.80;48.51;101731.78;6274593;22;45505;-86
2021/09/20 16:03:20;;;;;;;;;1.67;1.67;;;;;23.74;48.75;101731.09;6276876;22;45279;-85
2021/09/20 16:05:49;;;;;;;;;2.67;2.67;;;;;23.63;49.29;101733.34;6277324;22;45217;-85
2021/09/20 16:08:18;;;;;;;;;4.00;3.33;;;;;23.50;49.56;101721.38;6275017;22;45284;-86
2021/09/20 16:10:43;;;;;;;;;2.67;2.67;;;;;23.48;49.76;101739.38;6275735;22;45188;-86
2021/09/20 16:13:09;;;;;;;;;5.00;5.00;;;;;23.43;50.43;101738.69;6277483;22;45406;-86
2021/09/20 18:46:38;;;;;;;;;47.50;38.25;;;;;20.55;60.77;101910.16;6260236;22;45387;-86
2021/09/20 18:49:05;;;;;;;;;51.25;42.25;;;;;20.57;60.78;101913.69;6248574;22;45328;-88
2021/09/20 18:51:31;;;;;;;;;50.50;39.50;;;;;20.56;60.52;101909.28;6220128;22;45278;-87
2021/09/20 18:54:00;;;;;;;;;48.25;40.75;;;;;20.51;61.12;101904.00;6222364;22;45308;-88
2021/09/20 18:57:15;;;;;;;;;;;;;;;;;;;;;
